sensor_id;sensor_type;location;lat;lon;timestamp;P1;durP1;ratioP1;P2;durP2;ratioP2
12790;SDS011;6459;42.678;23.310;2022-08-01T00:00:09;3.63;;;3.33;;
12790;SDS011;6459;42.678;23.310;2022-08-01T00:02:41;4.23;;;3.00;;
12790;SDS011;6459;42.678;23.310;2022-08-01T00:05:14;3.83;;;2.73;;
12790;SDS011;6459;42.678;23.310;2022-08-01T00:07:45;5.43;;;3.17;;
12790;SDS011;6459;42.678;23.310;2022-08-01T00:10:16;3.10;;;2.90;;
12790;SDS011;6459;42.678;23.310;2022-08-01T00:12:48;3.30;;;3.10;;
12790;SDS011;6459;42.678;23.310;2022-08-01T00:15:16;7.43;;;2.57;;
12790;SDS011;6459;42.678;23.310;2022-08-01T00:17:56;3.07;;;2.87;;
12790;SDS011;6459;42.678;23.310;2022-08-01T00:20:42;2.97;;;2.77;;
12790;SDS011;6459;42.678;23.310;2022-08-01T00:23:14;3.20;;;2.97;;
12790;SDS011;6459;42.678;23.310;2022-08-01T00:25:51;2.83;;;2.63;;
12790;SDS011;6459;42.678;23.310;2022-08-01T00:28:20;3.77;;;2.90;;
12790;SDS011;6459;42.678;23.310;2022-08-01T00:30:53;2.70;;;2.43;;
12790;SDS011;6459;42.678;23.310;2022-08-01T00:36:15;3.57;;;3.27;;
12790;SDS011;6459;42.678;23.310;2022-08-01T00:38:43;3.70;;;3.40;;
12790;SDS011;6459;42.678;23.310;2022-08-01T00:41:12;10.60;;;3.47;;
12790;SDS011;6459;42.678;23.310;2022-08-01T00:43:40;4.00;;;3.00;;
12790;SDS011;6459;42.678;23.310;2022-08-01T00:46:10;4.63;;;4.03;;
12790;SDS011;6459;42.678;23.310;2022-08-01T00:48:41;5.47;;;4.30;;
12790;SDS011;6459;42.678;23.310;2022-08-01T00:51:12;5.00;;;4.60;;
12790;SDS011;6459;42.678;23.310;2022-08-01T00:53:49;11.13;;;4.70;;
12790;SDS011;6459;42.678;23.310;2022-08-01T00:56:34;5.37;;;4.87;;
12790;SDS011;6459;42.678;23.310;2022-08-01T00:59:02;4.67;;;4.37;;
12790;SDS011;6459;42.678;23.310;2022-08-01T01:01:32;5.00;;;4.60;;
12790;SDS011;6459;42.678;23.310;2022-08-01T01:04:05;5.00;;;4.60;;
12790;SDS011;6459;42.678;23.310;2022-08-01T01:06:55;5.20;;;4.70;;
12790;SDS011;6459;42.678;23.310;2022-08-01T01:13:04;4.63;;;4.30;;
12790;SDS011;6459;42.678;23.310;2022-08-01T01:15:43;5.03;;;4.53;;
12790;SDS011;6459;42.678;23.310;2022-08-01T01:18:17;4.30;;;4.00;;
12790;SDS011;6459;42.678;23.310;2022-08-01T01:20:50;4.80;;;4.40;;
12790;SDS011;6459;42.678;23.310;2022-08-01T01:23:50;4.13;;;3.67;;
12790;SDS011;6459;42.678;23.310;2022-08-01T01:26:31;4.10;;;3.80;;
12790;SDS011;6459;42.678;23.310;2022-08-01T01:29:21;3.67;;;3.37;;
12790;SDS011;6459;42.678;23.310;2022-08-01T01:31:55;4.00;;;3.10;;
12790;SDS011;6459;42.678;23.310;2022-08-01T01:34:31;3.27;;;2.97;;
12790;SDS011;6459;42.678;23.310;2022-08-01T01:37:12;3.47;;;3.13;;
12790;SDS011;6459;42.678;23.310;2022-08-01T01:39:50;3.10;;;2.90;;
12790;SDS011;6459;42.678;23.310;2022-08-01T01:42:22;4.57;;;2.83;;
12790;SDS011;6459;42.678;23.310;2022-08-01T01:44:58;2.90;;;2.50;;
12790;SDS011;6459;42.678;23.310;2022-08-01T01:47:27;2.40;;;2.30;;
12790;SDS011;6459;42.678;23.310;2022-08-01T01:49:57;2.50;;;2.30;;
12790;SDS011;6459;42.678;23.310;2022-08-01T01:52:27;3.43;;;2.40;;
12790;SDS011;6459;42.678;23.310;2022-08-01T01:54:59;2.53;;;2.43;;
12790;SDS011;6459;42.678;23.310;2022-08-01T01:57:33;4.23;;;2.37;;
12790;SDS011;6459;42.678;23.310;2022-08-01T02:00:09;2.30;;;2.10;;
12790;SDS011;6459;42.678;23.310;2022-08-01T02:02:39;2.30;;;2.10;;
12790;SDS011;6459;42.678;23.310;2022-08-01T02:05:09;1.97;;;1.83;;
12790;SDS011;6459;42.678;23.310;2022-08-01T02:07:39;3.23;;;2.23;;
12790;SDS011;6459;42.678;23.310;2022-08-01T02:10:09;3.10;;;2.30;;
12790;SDS011;6459;42.678;23.310;2022-08-01T02:12:41;2.80;;;2.33;;
12790;SDS011;6459;42.678;23.310;2022-08-01T02:15:27;6.87;;;2.30;;
12790;SDS011;6459;42.678;23.310;2022-08-01T02:17:56;7.07;;;2.07;;
12790;SDS011;6459;42.678;23.310;2022-08-01T02:23:41;2.50;;;2.00;;
12790;SDS011;6459;42.678;23.310;2022-08-01T02:26:14;2.20;;;2.00;;
12790;SDS011;6459;42.678;23.310;2022-08-01T02:28:46;2.23;;;2.13;;
12790;SDS011;6459;42.678;23.310;2022-08-01T02:31:20;2.20;;;2.07;;
12790;SDS011;6459;42.678;23.310;2022-08-01T02:33:51;2.10;;;1.90;;
12790;SDS011;6459;42.678;23.310;2022-08-01T02:36:25;2.67;;;2.00;;
12790;SDS011;6459;42.678;23.310;2022-08-01T02:38:59;3.93;;;2.43;;
12790;SDS011;6459;42.678;23.310;2022-08-01T02:41:30;2.40;;;2.20;;
12790;SDS011;6459;42.678;23.310;2022-08-01T02:44:01;7.87;;;2.03;;
12790;SDS011;6459;42.678;23.310;2022-08-01T02:46:35;2.13;;;1.97;;
12790;SDS011;6459;42.678;23.310;2022-08-01T02:49:06;2.23;;;2.13;;
12790;SDS011;6459;42.678;23.310;2022-08-01T02:51:36;3.00;;;2.10;;
12790;SDS011;6459;42.678;23.310;2022-08-01T02:54:08;2.07;;;1.97;;
12790;SDS011;6459;42.678;23.310;2022-08-01T02:56:38;2.20;;;2.00;;
12790;SDS011;6459;42.678;23.310;2022-08-01T02:59:09;2.50;;;2.30;;
12790;SDS011;6459;42.678;23.310;2022-08-01T03:01:53;2.27;;;2.07;;
12790;SDS011;6459;42.678;23.310;2022-08-01T03:04:26;2.20;;;2.00;;
12790;SDS011;6459;42.678;23.310;2022-08-01T03:10:38;3.37;;;2.97;;
12790;SDS011;6459;42.678;23.310;2022-08-01T03:13:08;2.93;;;2.73;;
12790;SDS011;6459;42.678;23.310;2022-08-01T03:15:39;4.20;;;2.73;;
12790;SDS011;6459;42.678;23.310;2022-08-01T03:18:10;3.60;;;3.30;;
12790;SDS011;6459;42.678;23.310;2022-08-01T03:20:41;3.53;;;3.23;;
12790;SDS011;6459;42.678;23.310;2022-08-01T03:23:11;2.90;;;2.70;;
12790;SDS011;6459;42.678;23.310;2022-08-01T03:25:40;4.23;;;3.40;;
12790;SDS011;6459;42.678;23.310;2022-08-01T03:28:12;3.37;;;3.10;;
12790;SDS011;6459;42.678;23.310;2022-08-01T03:30:41;3.37;;;3.07;;
12790;SDS011;6459;42.678;23.310;2022-08-01T03:36:56;4.10;;;3.70;;
12790;SDS011;6459;42.678;23.310;2022-08-01T03:39:32;4.20;;;3.70;;
12790;SDS011;6459;42.678;23.310;2022-08-01T03:42:05;3.97;;;3.43;;
12790;SDS011;6459;42.678;23.310;2022-08-01T03:44:38;6.13;;;3.67;;
12790;SDS011;6459;42.678;23.310;2022-08-01T03:47:08;3.67;;;3.37;;
12790;SDS011;6459;42.678;23.310;2022-08-01T03:49:40;5.30;;;3.37;;
12790;SDS011;6459;42.678;23.310;2022-08-01T03:52:12;4.10;;;3.70;;
12790;SDS011;6459;42.678;23.310;2022-08-01T03:54:48;3.63;;;3.33;;
12790;SDS011;6459;42.678;23.310;2022-08-01T03:57:18;4.10;;;3.70;;
12790;SDS011;6459;42.678;23.310;2022-08-01T04:00:02;4.50;;;3.83;;
12790;SDS011;6459;42.678;23.310;2022-08-01T04:02:35;5.67;;;3.40;;
12790;SDS011;6459;42.678;23.310;2022-08-01T04:05:05;5.80;;;3.40;;
12790;SDS011;6459;42.678;23.310;2022-08-01T04:07:35;5.43;;;3.70;;
12790;SDS011;6459;42.678;23.310;2022-08-01T04:10:05;3.53;;;3.27;;
12790;SDS011;6459;42.678;23.310;2022-08-01T04:12:34;4.63;;;3.93;;
12790;SDS011;6459;42.678;23.310;2022-08-01T04:15:03;4.70;;;4.13;;
12790;SDS011;6459;42.678;23.310;2022-08-01T04:17:32;5.03;;;4.20;;
12790;SDS011;6459;42.678;23.310;2022-08-01T04:20:00;6.90;;;4.70;;
12790;SDS011;6459;42.678;23.310;2022-08-01T04:22:28;7.47;;;4.83;;
12790;SDS011;6459;42.678;23.310;2022-08-01T04:25:04;6.73;;;4.70;;
12790;SDS011;6459;42.678;23.310;2022-08-01T04:27:39;7.27;;;4.53;;
12790;SDS011;6459;42.678;23.310;2022-08-01T04:30:17;4.20;;;3.80;;
12790;SDS011;6459;42.678;23.310;2022-08-01T04:32:48;4.87;;;4.43;;
12790;SDS011;6459;42.678;23.310;2022-08-01T04:35:18;4.87;;;4.47;;
12790;SDS011;6459;42.678;23.310;2022-08-01T04:38:08;5.20;;;4.47;;
12790;SDS011;6459;42.678;23.310;2022-08-01T04:40:40;5.40;;;4.63;;
12790;SDS011;6459;42.678;23.310;2022-08-01T04:43:09;10.13;;;5.20;;
12790;SDS011;6459;42.678;23.310;2022-08-01T04:45:40;8.10;;;4.97;;
12790;SDS011;6459;42.678;23.310;2022-08-01T04:48:11;7.07;;;6.27;;
12790;SDS011;6459;42.678;23.310;2022-08-01T04:50:42;12.03;;;5.67;;
12790;SDS011;6459;42.678;23.310;2022-08-01T04:53:12;9.60;;;5.53;;
12790;SDS011;6459;42.678;23.310;2022-08-01T04:55:45;7.77;;;5.10;;
12790;SDS011;6459;42.678;23.310;2022-08-01T04:58:14;6.10;;;5.50;;
12790;SDS011;6459;42.678;23.310;2022-08-01T05:00:44;9.40;;;5.50;;
12790;SDS011;6459;42.678;23.310;2022-08-01T05:03:14;11.20;;;6.33;;
12790;SDS011;6459;42.678;23.310;2022-08-01T05:05:43;6.33;;;5.30;;
12790;SDS011;6459;42.678;23.310;2022-08-01T05:08:11;8.07;;;5.60;;
12790;SDS011;6459;42.678;23.310;2022-08-01T05:10:40;8.93;;;4.70;;
12790;SDS011;6459;42.678;23.310;2022-08-01T05:13:09;16.00;;;5.53;;
12790;SDS011;6459;42.678;23.310;2022-08-01T05:15:38;12.23;;;5.33;;
12790;SDS011;6459;42.678;23.310;2022-08-01T05:18:06;12.50;;;5.43;;
12790;SDS011;6459;42.678;23.310;2022-08-01T05:20:53;9.93;;;5.77;;
12790;SDS011;6459;42.678;23.310;2022-08-01T05:23:21;8.40;;;5.50;;
12790;SDS011;6459;42.678;23.310;2022-08-01T05:26:08;7.10;;;5.28;;
12790;SDS011;6459;42.678;23.310;2022-08-01T05:28:38;6.10;;;5.03;;
12790;SDS011;6459;42.678;23.310;2022-08-01T05:31:07;8.93;;;5.15;;
12790;SDS011;6459;42.678;23.310;2022-08-01T05:33:35;5.40;;;4.78;;
12790;SDS011;6459;42.678;23.310;2022-08-01T05:36:03;7.70;;;4.93;;
12790;SDS011;6459;42.678;23.310;2022-08-01T05:38:32;5.60;;;4.22;;
12790;SDS011;6459;42.678;23.310;2022-08-01T05:41:12;5.60;;;4.50;;
12790;SDS011;6459;42.678;23.310;2022-08-01T05:43:42;4.47;;;3.77;;
12790;SDS011;6459;42.678;23.310;2022-08-01T05:46:10;5.37;;;4.03;;
12790;SDS011;6459;42.678;23.310;2022-08-01T05:48:39;5.47;;;3.50;;
12790;SDS011;6459;42.678;23.310;2022-08-01T05:51:07;6.17;;;4.20;;
12790;SDS011;6459;42.678;23.310;2022-08-01T05:53:35;6.30;;;3.27;;
12790;SDS011;6459;42.678;23.310;2022-08-01T05:56:04;3.63;;;3.33;;
12790;SDS011;6459;42.678;23.310;2022-08-01T05:58:35;4.80;;;3.40;;
12790;SDS011;6459;42.678;23.310;2022-08-01T06:01:04;5.07;;;3.27;;
12790;SDS011;6459;42.678;23.310;2022-08-01T06:03:33;6.67;;;2.80;;
12790;SDS011;6459;42.678;23.310;2022-08-01T06:06:02;3.73;;;3.23;;
12790;SDS011;6459;42.678;23.310;2022-08-01T06:08:31;3.70;;;2.53;;
12790;SDS011;6459;42.678;23.310;2022-08-01T06:10:59;4.63;;;2.47;;
12790;SDS011;6459;42.678;23.310;2022-08-01T06:13:34;2.80;;;2.60;;
12790;SDS011;6459;42.678;23.310;2022-08-01T06:16:15;2.57;;;2.37;;
12790;SDS011;6459;42.678;23.310;2022-08-01T06:18:44;3.77;;;2.50;;
12790;SDS011;6459;42.678;23.310;2022-08-01T06:21:13;3.57;;;2.77;;
12790;SDS011;6459;42.678;23.310;2022-08-01T06:23:41;7.33;;;2.40;;
12790;SDS011;6459;42.678;23.310;2022-08-01T06:26:09;2.97;;;2.67;;
12790;SDS011;6459;42.678;23.310;2022-08-01T06:28:38;3.33;;;2.37;;
12790;SDS011;6459;42.678;23.310;2022-08-01T06:31:07;4.80;;;2.90;;
12790;SDS011;6459;42.678;23.310;2022-08-01T06:33:39;4.70;;;2.47;;
12790;SDS011;6459;42.678;23.310;2022-08-01T06:36:07;2.77;;;2.57;;
12790;SDS011;6459;42.678;23.310;2022-08-01T06:38:40;5.47;;;2.63;;
12790;SDS011;6459;42.678;23.310;2022-08-01T06:41:09;4.33;;;2.67;;
12790;SDS011;6459;42.678;23.310;2022-08-01T06:43:37;3.10;;;2.77;;
12790;SDS011;6459;42.678;23.310;2022-08-01T06:46:05;5.80;;;2.93;;
12790;SDS011;6459;42.678;23.310;2022-08-01T06:48:34;2.63;;;2.10;;
12790;SDS011;6459;42.678;23.310;2022-08-01T06:51:07;2.70;;;2.50;;
12790;SDS011;6459;42.678;23.310;2022-08-01T06:53:35;2.90;;;2.70;;
12790;SDS011;6459;42.678;23.310;2022-08-01T06:56:05;5.53;;;3.40;;
12790;SDS011;6459;42.678;23.310;2022-08-01T07:01:16;3.00;;;2.77;;
12790;SDS011;6459;42.678;23.310;2022-08-01T07:03:45;2.93;;;2.70;;
12790;SDS011;6459;42.678;23.310;2022-08-01T07:06:22;3.17;;;2.87;;
12790;SDS011;6459;42.678;23.310;2022-08-01T07:08:51;4.83;;;2.80;;
12790;SDS011;6459;42.678;23.310;2022-08-01T07:11:20;2.87;;;2.67;;
12790;SDS011;6459;42.678;23.310;2022-08-01T07:13:50;9.33;;;3.10;;
12790;SDS011;6459;42.678;23.310;2022-08-01T07:16:18;3.33;;;3.03;;
12790;SDS011;6459;42.678;23.310;2022-08-01T07:18:46;4.27;;;3.10;;
12790;SDS011;6459;42.678;23.310;2022-08-01T07:21:14;5.50;;;2.70;;
12790;SDS011;6459;42.678;23.310;2022-08-01T07:24:04;4.27;;;3.03;;
12790;SDS011;6459;42.678;23.310;2022-08-01T07:26:39;3.83;;;2.93;;
12790;SDS011;6459;42.678;23.310;2022-08-01T07:29:20;3.60;;;2.53;;
12790;SDS011;6459;42.678;23.310;2022-08-01T07:31:49;3.90;;;2.67;;
12790;SDS011;6459;42.678;23.310;2022-08-01T07:34:19;6.07;;;3.03;;
12790;SDS011;6459;42.678;23.310;2022-08-01T07:36:48;4.70;;;3.10;;
12790;SDS011;6459;42.678;23.310;2022-08-01T07:39:18;4.07;;;2.73;;
12790;SDS011;6459;42.678;23.310;2022-08-01T07:41:46;7.13;;;2.63;;
12790;SDS011;6459;42.678;23.310;2022-08-01T07:44:33;6.53;;;2.70;;
12790;SDS011;6459;42.678;23.310;2022-08-01T07:47:01;3.30;;;2.50;;
12790;SDS011;6459;42.678;23.310;2022-08-01T07:49:30;3.07;;;2.87;;
12790;SDS011;6459;42.678;23.310;2022-08-01T07:52:05;5.20;;;3.23;;
12790;SDS011;6459;42.678;23.310;2022-08-01T07:54:35;6.20;;;2.87;;
12790;SDS011;6459;42.678;23.310;2022-08-01T07:57:04;6.37;;;3.00;;
12790;SDS011;6459;42.678;23.310;2022-08-01T07:59:32;3.43;;;3.13;;
12790;SDS011;6459;42.678;23.310;2022-08-01T08:02:09;3.07;;;2.80;;
12790;SDS011;6459;42.678;23.310;2022-08-01T08:04:37;3.60;;;2.90;;
12790;SDS011;6459;42.678;23.310;2022-08-01T08:07:05;2.90;;;2.70;;
12790;SDS011;6459;42.678;23.310;2022-08-01T08:09:39;4.67;;;3.13;;
12790;SDS011;6459;42.678;23.310;2022-08-01T08:12:07;3.67;;;2.90;;
12790;SDS011;6459;42.678;23.310;2022-08-01T08:14:36;5.27;;;3.00;;
12790;SDS011;6459;42.678;23.310;2022-08-01T08:17:04;5.30;;;3.10;;
12790;SDS011;6459;42.678;23.310;2022-08-01T08:19:33;3.57;;;3.27;;
12790;SDS011;6459;42.678;23.310;2022-08-01T08:22:04;2.90;;;2.70;;
12790;SDS011;6459;42.678;23.310;2022-08-01T08:24:34;3.13;;;2.93;;
12790;SDS011;6459;42.678;23.310;2022-08-01T08:27:13;6.53;;;2.97;;
12790;SDS011;6459;42.678;23.310;2022-08-01T08:29:44;3.07;;;2.77;;
12790;SDS011;6459;42.678;23.310;2022-08-01T08:32:12;3.03;;;2.83;;
12790;SDS011;6459;42.678;23.310;2022-08-01T08:34:41;2.90;;;2.70;;
12790;SDS011;6459;42.678;23.310;2022-08-01T08:37:10;2.93;;;2.73;;
12790;SDS011;6459;42.678;23.310;2022-08-01T08:39:39;4.80;;;2.83;;
12790;SDS011;6459;42.678;23.310;2022-08-01T08:42:08;3.10;;;2.90;;
12790;SDS011;6459;42.678;23.310;2022-08-01T08:44:41;4.23;;;3.00;;
12790;SDS011;6459;42.678;23.310;2022-08-01T08:47:13;3.13;;;2.80;;
12790;SDS011;6459;42.678;23.310;2022-08-01T08:49:45;2.80;;;2.60;;
12790;SDS011;6459;42.678;23.310;2022-08-01T08:52:15;4.33;;;2.73;;
12790;SDS011;6459;42.678;23.310;2022-08-01T08:54:45;2.77;;;2.53;;
12790;SDS011;6459;42.678;23.310;2022-08-01T08:57:14;2.90;;;2.60;;
12790;SDS011;6459;42.678;23.310;2022-08-01T08:59:44;3.67;;;2.60;;
12790;SDS011;6459;42.678;23.310;2022-08-01T09:02:13;2.93;;;2.73;;
12790;SDS011;6459;42.678;23.310;2022-08-01T09:04:41;3.27;;;2.67;;
12790;SDS011;6459;42.678;23.310;2022-08-01T09:07:10;2.90;;;2.70;;
12790;SDS011;6459;42.678;23.310;2022-08-01T09:09:40;4.40;;;2.67;;
12790;SDS011;6459;42.678;23.310;2022-08-01T09:12:09;2.67;;;2.47;;
12790;SDS011;6459;42.678;23.310;2022-08-01T09:14:45;5.03;;;2.83;;
12790;SDS011;6459;42.678;23.310;2022-08-01T09:17:14;3.13;;;2.60;;
12790;SDS011;6459;42.678;23.310;2022-08-01T09:19:43;3.83;;;2.30;;
12790;SDS011;6459;42.678;23.310;2022-08-01T09:22:14;2.80;;;2.60;;
12790;SDS011;6459;42.678;23.310;2022-08-01T09:24:56;3.60;;;2.27;;
12790;SDS011;6459;42.678;23.310;2022-08-01T09:27:25;3.10;;;2.90;;
12790;SDS011;6459;42.678;23.310;2022-08-01T09:29:55;3.77;;;2.53;;
12790;SDS011;6459;42.678;23.310;2022-08-01T09:36:25;2.97;;;2.60;;
12790;SDS011;6459;42.678;23.310;2022-08-01T09:38:58;2.80;;;2.57;;
12790;SDS011;6459;42.678;23.310;2022-08-01T09:41:40;3.10;;;2.43;;
12790;SDS011;6459;42.678;23.310;2022-08-01T09:44:17;2.40;;;2.20;;
12790;SDS011;6459;42.678;23.310;2022-08-01T09:47:09;3.03;;;2.83;;
12790;SDS011;6459;42.678;23.310;2022-08-01T09:49:41;4.30;;;3.50;;
12790;SDS011;6459;42.678;23.310;2022-08-01T09:52:17;2.93;;;2.73;;
12790;SDS011;6459;42.678;23.310;2022-08-01T09:58:35;3.30;;;3.10;;
12790;SDS011;6459;42.678;23.310;2022-08-01T10:01:24;3.03;;;2.80;;
12790;SDS011;6459;42.678;23.310;2022-08-01T10:04:08;2.80;;;2.60;;
12790;SDS011;6459;42.678;23.310;2022-08-01T10:06:38;4.20;;;2.93;;
12790;SDS011;6459;42.678;23.310;2022-08-01T10:09:08;3.20;;;2.90;;
12790;SDS011;6459;42.678;23.310;2022-08-01T10:11:36;2.93;;;2.73;;
12790;SDS011;6459;42.678;23.310;2022-08-01T10:14:06;2.63;;;2.43;;
12790;SDS011;6459;42.678;23.310;2022-08-01T10:16:34;3.00;;;2.63;;
12790;SDS011;6459;42.678;23.310;2022-08-01T10:19:05;2.90;;;2.70;;
12790;SDS011;6459;42.678;23.310;2022-08-01T10:21:36;3.90;;;2.50;;
12790;SDS011;6459;42.678;23.310;2022-08-01T10:24:24;3.20;;;3.00;;
12790;SDS011;6459;42.678;23.310;2022-08-01T10:26:55;3.37;;;2.83;;
12790;SDS011;6459;42.678;23.310;2022-08-01T10:29:35;5.77;;;4.27;;
12790;SDS011;6459;42.678;23.310;2022-08-01T10:32:39;6.97;;;3.00;;
12790;SDS011;6459;42.678;23.310;2022-08-01T10:35:19;5.80;;;2.80;;
12790;SDS011;6459;42.678;23.310;2022-08-01T10:38:13;3.47;;;3.17;;
12790;SDS011;6459;42.678;23.310;2022-08-01T10:40:42;7.80;;;2.87;;
12790;SDS011;6459;42.678;23.310;2022-08-01T10:43:11;3.73;;;3.43;;
12790;SDS011;6459;42.678;23.310;2022-08-01T10:45:47;4.07;;;2.73;;
12790;SDS011;6459;42.678;23.310;2022-08-01T10:48:18;2.83;;;2.63;;
12790;SDS011;6459;42.678;23.310;2022-08-01T10:50:53;4.23;;;2.50;;
12790;SDS011;6459;42.678;23.310;2022-08-01T10:53:26;3.63;;;2.27;;
12790;SDS011;6459;42.678;23.310;2022-08-01T10:56:07;3.70;;;2.33;;
12790;SDS011;6459;42.678;23.310;2022-08-01T10:58:41;2.80;;;2.60;;
12790;SDS011;6459;42.678;23.310;2022-08-01T11:01:18;3.70;;;2.40;;
12790;SDS011;6459;42.678;23.310;2022-08-01T11:03:59;2.83;;;2.63;;
12790;SDS011;6459;42.678;23.310;2022-08-01T11:06:48;2.83;;;2.63;;
12790;SDS011;6459;42.678;23.310;2022-08-01T11:09:22;2.73;;;2.53;;
12790;SDS011;6459;42.678;23.310;2022-08-01T11:12:03;3.00;;;2.80;;
12790;SDS011;6459;42.678;23.310;2022-08-01T11:17:56;2.60;;;2.47;;
12790;SDS011;6459;42.678;23.310;2022-08-01T11:20:30;4.60;;;2.77;;
12790;SDS011;6459;42.678;23.310;2022-08-01T11:23:18;3.03;;;2.83;;
12790;SDS011;6459;42.678;23.310;2022-08-01T11:26:07;4.57;;;3.70;;
12790;SDS011;6459;42.678;23.310;2022-08-01T11:28:38;2.77;;;2.57;;
12790;SDS011;6459;42.678;23.310;2022-08-01T11:31:28;3.10;;;2.80;;
12790;SDS011;6459;42.678;23.310;2022-08-01T11:34:03;4.73;;;3.00;;
12790;SDS011;6459;42.678;23.310;2022-08-01T11:36:32;2.80;;;2.60;;
12790;SDS011;6459;42.678;23.310;2022-08-01T11:39:22;2.83;;;2.60;;
12790;SDS011;6459;42.678;23.310;2022-08-01T11:41:52;2.60;;;2.50;;
12790;SDS011;6459;42.678;23.310;2022-08-01T11:44:22;2.70;;;2.50;;
12790;SDS011;6459;42.678;23.310;2022-08-01T11:47:03;2.80;;;2.70;;
12790;SDS011;6459;42.678;23.310;2022-08-01T11:49:50;2.93;;;2.70;;
12790;SDS011;6459;42.678;23.310;2022-08-01T11:52:25;2.90;;;2.70;;
12790;SDS011;6459;42.678;23.310;2022-08-01T11:55:07;4.30;;;2.67;;
12790;SDS011;6459;42.678;23.310;2022-08-01T11:57:41;2.60;;;2.40;;
12790;SDS011;6459;42.678;23.310;2022-08-01T12:00:14;4.37;;;2.97;;
12790;SDS011;6459;42.678;23.310;2022-08-01T12:02:44;2.77;;;2.60;;
12790;SDS011;6459;42.678;23.310;2022-08-01T12:05:14;2.97;;;2.80;;
12790;SDS011;6459;42.678;23.310;2022-08-01T12:07:52;2.70;;;2.60;;
12790;SDS011;6459;42.678;23.310;2022-08-01T12:10:23;3.03;;;2.83;;
12790;SDS011;6459;42.678;23.310;2022-08-01T12:12:54;4.80;;;2.80;;
12790;SDS011;6459;42.678;23.310;2022-08-01T12:15:23;4.30;;;3.07;;
12790;SDS011;6459;42.678;23.310;2022-08-01T12:17:56;5.77;;;3.60;;
12790;SDS011;6459;42.678;23.310;2022-08-01T12:20:27;3.30;;;3.00;;
12790;SDS011;6459;42.678;23.310;2022-08-01T12:22:58;3.60;;;3.27;;
12790;SDS011;6459;42.678;23.310;2022-08-01T12:25:29;3.00;;;2.80;;
12790;SDS011;6459;42.678;23.310;2022-08-01T12:27:59;3.50;;;3.20;;
12790;SDS011;6459;42.678;23.310;2022-08-01T12:30:29;3.30;;;3.10;;
12790;SDS011;6459;42.678;23.310;2022-08-01T12:33:02;8.20;;;6.43;;
12790;SDS011;6459;42.678;23.310;2022-08-01T12:35:31;5.50;;;3.30;;
12790;SDS011;6459;42.678;23.310;2022-08-01T12:38:00;4.60;;;2.93;;
12790;SDS011;6459;42.678;23.310;2022-08-01T12:40:31;3.37;;;3.17;;
12790;SDS011;6459;42.678;23.310;2022-08-01T12:43:02;4.93;;;3.23;;
12790;SDS011;6459;42.678;23.310;2022-08-01T12:45:33;4.47;;;3.27;;
12790;SDS011;6459;42.678;23.310;2022-08-01T12:48:05;3.50;;;3.20;;
12790;SDS011;6459;42.678;23.310;2022-08-01T12:50:42;4.97;;;3.10;;
12790;SDS011;6459;42.678;23.310;2022-08-01T12:53:12;2.97;;;2.77;;
12790;SDS011;6459;42.678;23.310;2022-08-01T12:55:47;5.63;;;4.20;;
12790;SDS011;6459;42.678;23.310;2022-08-01T12:58:30;4.43;;;4.03;;
12790;SDS011;6459;42.678;23.310;2022-08-01T13:01:07;4.07;;;3.03;;
12790;SDS011;6459;42.678;23.310;2022-08-01T13:03:38;4.90;;;3.03;;
12790;SDS011;6459;42.678;23.310;2022-08-01T13:06:10;3.97;;;3.17;;
12790;SDS011;6459;42.678;23.310;2022-08-01T13:08:42;3.60;;;3.07;;
12790;SDS011;6459;42.678;23.310;2022-08-01T13:11:12;4.80;;;3.00;;
12790;SDS011;6459;42.678;23.310;2022-08-01T13:13:44;6.83;;;3.20;;
12790;SDS011;6459;42.678;23.310;2022-08-01T13:16:15;3.20;;;3.00;;
12790;SDS011;6459;42.678;23.310;2022-08-01T13:19:03;4.53;;;3.20;;
12790;SDS011;6459;42.678;23.310;2022-08-01T13:21:33;3.57;;;3.27;;
12790;SDS011;6459;42.678;23.310;2022-08-01T13:24:22;4.40;;;3.00;;
12790;SDS011;6459;42.678;23.310;2022-08-01T13:26:54;3.57;;;3.27;;
12790;SDS011;6459;42.678;23.310;2022-08-01T13:29:29;3.00;;;2.80;;
12790;SDS011;6459;42.678;23.310;2022-08-01T13:31:59;5.33;;;3.10;;
12790;SDS011;6459;42.678;23.310;2022-08-01T13:34:31;3.70;;;2.90;;
12790;SDS011;6459;42.678;23.310;2022-08-01T13:36:59;3.43;;;3.13;;
12790;SDS011;6459;42.678;23.310;2022-08-01T13:39:28;4.67;;;3.60;;
12790;SDS011;6459;42.678;23.310;2022-08-01T13:42:18;3.87;;;2.93;;
12790;SDS011;6459;42.678;23.310;2022-08-01T13:45:01;3.17;;;2.97;;
12790;SDS011;6459;42.678;23.310;2022-08-01T13:47:49;3.53;;;3.23;;
12790;SDS011;6459;42.678;23.310;2022-08-01T13:50:40;3.13;;;2.93;;
12790;SDS011;6459;42.678;23.310;2022-08-01T13:53:32;3.23;;;3.03;;
12790;SDS011;6459;42.678;23.310;2022-08-01T13:56:18;3.30;;;2.60;;
12790;SDS011;6459;42.678;23.310;2022-08-01T13:58:50;2.80;;;2.60;;
12790;SDS011;6459;42.678;23.310;2022-08-01T14:01:19;3.17;;;2.90;;
12790;SDS011;6459;42.678;23.310;2022-08-01T14:03:48;3.07;;;2.87;;
12790;SDS011;6459;42.678;23.310;2022-08-01T14:06:29;3.20;;;2.90;;
12790;SDS011;6459;42.678;23.310;2022-08-01T14:08:58;3.30;;;3.00;;
12790;SDS011;6459;42.678;23.310;2022-08-01T14:11:26;3.03;;;2.87;;
12790;SDS011;6459;42.678;23.310;2022-08-01T14:21:21;3.40;;;2.73;;
12790;SDS011;6459;42.678;23.310;2022-08-01T14:23:49;3.10;;;2.90;;
12790;SDS011;6459;42.678;23.310;2022-08-01T14:26:17;3.67;;;3.37;;
12790;SDS011;6459;42.678;23.310;2022-08-01T14:28:45;4.43;;;3.10;;
12790;SDS011;6459;42.678;23.310;2022-08-01T14:31:14;3.83;;;2.83;;
12790;SDS011;6459;42.678;23.310;2022-08-01T14:33:43;2.97;;;2.77;;
12790;SDS011;6459;42.678;23.310;2022-08-01T14:36:14;2.70;;;2.50;;
12790;SDS011;6459;42.678;23.310;2022-08-01T14:38:57;4.27;;;2.60;;
12790;SDS011;6459;42.678;23.310;2022-08-01T14:41:26;3.30;;;3.00;;
12790;SDS011;6459;42.678;23.310;2022-08-01T14:43:56;3.17;;;2.67;;
12790;SDS011;6459;42.678;23.310;2022-08-01T14:46:26;2.67;;;2.47;;
12790;SDS011;6459;42.678;23.310;2022-08-01T14:49:00;4.07;;;2.60;;
12790;SDS011;6459;42.678;23.310;2022-08-01T14:51:29;2.83;;;2.63;;
12790;SDS011;6459;42.678;23.310;2022-08-01T14:54:00;3.10;;;2.70;;
12790;SDS011;6459;42.678;23.310;2022-08-01T14:56:29;3.20;;;2.53;;
12790;SDS011;6459;42.678;23.310;2022-08-01T14:58:58;2.70;;;2.50;;
12790;SDS011;6459;42.678;23.310;2022-08-01T15:01:26;2.90;;;2.40;;
12790;SDS011;6459;42.678;23.310;2022-08-01T15:03:54;2.50;;;2.40;;
12790;SDS011;6459;42.678;23.310;2022-08-01T15:06:24;2.60;;;2.50;;
12790;SDS011;6459;42.678;23.310;2022-08-01T15:08:52;2.43;;;2.30;;
12790;SDS011;6459;42.678;23.310;2022-08-01T15:11:20;4.50;;;2.73;;
12790;SDS011;6459;42.678;23.310;2022-08-01T15:13:59;3.47;;;2.47;;
12790;SDS011;6459;42.678;23.310;2022-08-01T15:16:45;2.67;;;2.50;;
12790;SDS011;6459;42.678;23.310;2022-08-01T15:19:17;4.37;;;2.60;;
12790;SDS011;6459;42.678;23.310;2022-08-01T15:21:47;2.43;;;2.23;;
12790;SDS011;6459;42.678;23.310;2022-08-01T15:24:19;2.60;;;2.50;;
12790;SDS011;6459;42.678;23.310;2022-08-01T15:27:23;4.60;;;2.40;;
12790;SDS011;6459;42.678;23.310;2022-08-01T15:29:51;4.00;;;2.67;;
12790;SDS011;6459;42.678;23.310;2022-08-01T15:32:22;5.60;;;2.40;;
12790;SDS011;6459;42.678;23.310;2022-08-01T15:34:51;2.60;;;2.40;;
12790;SDS011;6459;42.678;23.310;2022-08-01T15:37:26;2.23;;;2.13;;
12790;SDS011;6459;42.678;23.310;2022-08-01T15:39:54;2.60;;;2.40;;
12790;SDS011;6459;42.678;23.310;2022-08-01T15:42:24;2.60;;;2.40;;
12790;SDS011;6459;42.678;23.310;2022-08-01T15:44:54;2.83;;;2.57;;
12790;SDS011;6459;42.678;23.310;2022-08-01T15:47:23;2.97;;;2.43;;
12790;SDS011;6459;42.678;23.310;2022-08-01T15:49:53;3.17;;;2.60;;
12790;SDS011;6459;42.678;23.310;2022-08-01T15:52:27;2.40;;;2.20;;
12790;SDS011;6459;42.678;23.310;2022-08-01T15:54:57;2.90;;;2.30;;
12790;SDS011;6459;42.678;23.310;2022-08-01T15:57:26;2.57;;;2.30;;
12790;SDS011;6459;42.678;23.310;2022-08-01T15:59:56;2.70;;;2.50;;